Montrose, AR

1:53 AM CDT on May 27, 2015 (GMT -0500)
Bastrop | | Change Station
CLOSE
Current Station
Airport
Location: Bastrop,
Elevation: 167 ft
Nearby Weather Stations
Active Advisory: Flood Warning

Elev 167 ft 32.76 °N, 91.88 °W | Updated 18 minutes ago

Partly Cloudy
Partly Cloudy
71 °F
Feels Like 71 °F
N
5
Wind Variable Wind from ESE

Today
High -- | Low -- °F
--% Chance of Precip.
Yesterday
High -- | Low -- °F
Precip. -- in
5:59 AM 8:07 PM
Waxing Gibbous, 65% visible
Pressure 30.09 in
Visibility 10.0 miles
Clouds Scattered Clouds 3700 ft
Overcast 7000 ft
Dew Point 70 °F
Humidity 96%
Rainfall 0.00 in
Snow Depth Not available.
UV 0 out of 12
Pollen .70 out of 12
Air Quality Not available.
Flu Activity No Activity
METAR KBQP 270635Z AUTO 12004KT 10SM VCTS SCT037 OVC070 22/21 A3009 RMK AO2 LTG DSNT E T02160209

More Conditions Fewer Conditions

Pressure 30.09 in
Visibility 10.0 miles
Clouds Scattered Clouds 3700 ft
Overcast 7000 ft
Dew Point 70 °F
Humidity 96%
Rainfall 0.00 in
Snow Depth Not available.
UV 0 out of 12
Pollen .70 out of 12
Air Quality Not available.
Flu Activity No Activity
METAR KBQP 270635Z AUTO 12004KT 10SM VCTS SCT037 OVC070 22/21 A3009 RMK AO2 LTG DSNT E T02160209

More Conditions Fewer Conditions

10-Day Weather Forecast

Almanac

Astronomy

May. 27, 2015 Rise Set
Actual Time
Civil Twilight
Nautical Twilight
Astronomical Twilight
Moon
Length of Visible Light
Length of Day
Tomorrow will be .
, % of the Moon is Illuminated

Today's Extremes

State Highs State Lows

Community

WunderPhotos

Upload Photos

1,824,626 photos uploaded!

WunderBlogs® & News

Nearby

Air Quality

  Air Quality AQ Index Pollutant
Not available.

Snow Depth

Station Depth Elevation

Earthquake Activity

City Distance Mag. Time & Date
Minimum magnitude displayed is 2.5.

Coastal Water Temperatures

Place Temperature

Stations

Nearby Weather Stations

Station Location Temp. Windchill Dew Point Humidity Wind Precip. Elev Updated Type
                   
Flood Warning
Statement as of 9:40 AM CDT on May 26, 2015

The Flood Warning continues for
the Ouachita River at Felsenthal, Arkansas.
* Until further notice... or until the warning is cancelled.
* At 800 am Tuesday the pool stage was 73.7 feet.
* Minor flooding is occurring and minor flooding is forecast.
* Flood pool stage is 70 feet.
* Forecast... the river will continue rising to near 74.5 feet by
Friday evening. Additional rises remain possible thereafter.
* Impact... at 75.0 feet... flooding in the Felsenthal National Wildlife
Refuge will continue for at least another ten days.


Lat... Lon 3300 9210 3311 9217 3318 9212 3307 9211 3300 9205